createdAt,value
2023-11-24T00:00:42.581Z,46.46
2023-11-24T00:01:52.720Z,46.47
2023-11-24T00:02:42.558Z,46.49
2023-11-24T00:03:42.589Z,46.48
2023-11-24T00:04:42.527Z,46.48
2023-11-24T00:05:42.516Z,46.47
2023-11-24T00:06:42.565Z,46.48
2023-11-24T00:07:42.505Z,46.48
2023-11-24T00:08:42.496Z,46.47
2023-11-24T00:09:42.523Z,46.47
2023-11-24T00:10:42.469Z,46.46
2023-11-24T00:11:42.461Z,46.43
2023-11-24T00:12:42.486Z,46.46
2023-11-24T00:13:42.469Z,46.43
2023-11-24T00:14:42.435Z,46.46
2023-11-24T00:15:42.486Z,46.43
2023-11-24T00:16:42.461Z,46.44
2023-11-24T00:17:42.525Z,46.43
2023-11-24T00:18:42.455Z,46.44
2023-11-24T00:19:42.397Z,46.45
2023-11-24T00:20:42.388Z,46.47
2023-11-24T00:21:42.479Z,46.47
2023-11-24T00:22:42.422Z,46.44
2023-11-24T00:23:42.376Z,46.44
2023-11-24T00:24:42.361Z,46.42
2023-11-24T00:25:42.342Z,46.40
2023-11-24T00:26:42.340Z,46.41
2023-11-24T00:27:42.376Z,46.45
2023-11-24T00:28:42.323Z,46.37
2023-11-24T00:29:42.312Z,46.39
2023-11-24T00:30:42.321Z,46.38
2023-11-24T00:31:42.309Z,46.36
2023-11-24T00:32:42.349Z,46.37
2023-11-24T00:33:42.373Z,46.36
2023-11-24T00:34:42.306Z,46.41
2023-11-24T00:35:42.319Z,46.37
2023-11-24T00:36:42.302Z,46.36
2023-11-24T00:37:42.256Z,46.37
2023-11-24T00:38:42.231Z,46.39
2023-11-24T00:39:42.282Z,46.39
2023-11-24T00:40:42.221Z,46.38
2023-11-24T00:41:42.211Z,46.35
2023-11-24T00:42:42.236Z,46.32
2023-11-24T00:43:42.178Z,46.34
2023-11-24T00:44:42.172Z,46.32
2023-11-24T00:45:42.187Z,46.33
2023-11-24T00:46:42.191Z,46.33
2023-11-24T00:47:42.161Z,46.32
2023-11-24T00:48:42.176Z,46.32
2023-11-24T00:49:42.122Z,46.33
2023-11-24T00:50:42.131Z,46.32
2023-11-24T00:51:42.110Z,46.31
2023-11-24T00:52:42.131Z,46.32
2023-11-24T00:53:42.099Z,46.32
2023-11-24T00:54:42.102Z,46.29
2023-11-24T00:55:42.095Z,46.31
2023-11-24T00:56:42.069Z,46.30
2023-11-24T00:57:42.094Z,46.29
2023-11-24T00:58:42.082Z,46.30
2023-11-24T00:59:42.046Z,46.26
2023-11-24T01:00:42.087Z,46.27
2023-11-24T01:01:42.100Z,46.27
2023-11-24T01:02:42.094Z,46.26
2023-11-24T01:03:42.102Z,46.22
2023-11-24T01:04:42.043Z,46.23
2023-11-24T01:05:41.987Z,46.21
2023-11-24T01:06:42.100Z,46.24
2023-11-24T01:07:41.968Z,46.24
2023-11-24T01:08:41.978Z,46.22
2023-11-24T01:09:41.966Z,46.24
2023-11-24T01:10:41.953Z,46.22
2023-11-24T01:11:41.935Z,46.22
2023-11-24T01:12:41.955Z,46.23
2023-11-24T01:13:41.916Z,46.23
2023-11-24T01:14:41.942Z,46.24
2023-11-24T01:15:41.936Z,46.20
2023-11-24T01:16:41.902Z,46.22
2023-11-24T01:17:41.951Z,46.23
2023-11-24T01:18:41.909Z,46.24
2023-11-24T01:19:41.871Z,46.23
2023-11-24T01:20:41.857Z,46.18
2023-11-24T01:21:41.895Z,46.22
2023-11-24T01:22:41.852Z,46.23
2023-11-24T01:23:41.842Z,46.24
2023-11-24T01:24:41.830Z,46.21
2023-11-24T01:25:41.813Z,46.19
2023-11-24T01:26:41.816Z,46.21
2023-11-24T01:27:41.997Z,46.21
2023-11-24T01:28:42.479Z,46.19
2023-11-24T01:29:41.807Z,46.19
2023-11-24T01:30:41.831Z,46.14
2023-11-24T01:31:41.791Z,46.14
2023-11-24T01:32:41.846Z,46.14
2023-11-24T01:33:41.775Z,46.16
2023-11-24T01:34:41.774Z,46.15
2023-11-24T01:35:41.756Z,46.15
2023-11-24T01:36:41.783Z,46.15
2023-11-24T01:37:41.736Z,46.16
2023-11-24T01:38:41.719Z,46.15
2023-11-24T01:39:41.727Z,46.18
2023-11-24T01:40:41.684Z,46.17
2023-11-24T01:41:41.678Z,46.22
2023-11-24T01:42:41.711Z,46.17
2023-11-24T01:43:41.667Z,46.15
2023-11-24T01:44:41.667Z,46.17
2023-11-24T01:45:41.709Z,46.15
2023-11-24T01:46:41.697Z,46.12
2023-11-24T01:47:41.668Z,46.11
2023-11-24T01:48:41.655Z,46.12
2023-11-24T01:49:41.607Z,46.14
2023-11-24T01:50:41.609Z,46.08
2023-11-24T01:51:41.620Z,46.07
2023-11-24T01:52:41.596Z,46.09
2023-11-24T01:53:41.559Z,46.09
2023-11-24T01:54:41.584Z,46.11
2023-11-24T01:55:41.553Z,46.11
2023-11-24T01:56:41.548Z,46.11
2023-11-24T01:57:41.584Z,46.09
2023-11-24T01:58:41.529Z,46.06
2023-11-24T01:59:41.551Z,46.06
2023-11-24T02:00:41.517Z,46.09
2023-11-24T02:01:41.580Z,46.11
2023-11-24T02:02:41.615Z,46.11
2023-11-24T02:03:41.543Z,46.12
2023-11-24T02:04:41.474Z,46.13
2023-11-24T02:05:41.499Z,46.15
2023-11-24T02:06:41.485Z,46.14
2023-11-24T02:07:41.455Z,46.12
2023-11-24T02:08:41.452Z,46.13
2023-11-24T02:09:41.455Z,46.13
2023-11-24T02:10:41.450Z,46.14
2023-11-24T02:11:41.405Z,46.10
2023-11-24T02:12:41.466Z,46.10
2023-11-24T02:13:41.400Z,46.08
2023-11-24T02:14:41.400Z,46.05
2023-11-24T02:15:41.401Z,46.07
2023-11-24T02:16:41.399Z,46.04
2023-11-24T02:17:41.394Z,46.02
2023-11-24T02:18:41.368Z,46.03
2023-11-24T02:19:41.359Z,46.02
2023-11-24T02:20:41.347Z,46.01
2023-11-24T02:21:41.355Z,46.01
2023-11-24T02:22:41.338Z,46.02
2023-11-24T02:23:41.310Z,45.95
2023-11-24T02:24:41.334Z,46.00
2023-11-24T02:25:41.298Z,45.96
2023-11-24T02:26:41.298Z,45.96
2023-11-24T02:27:41.296Z,45.98
2023-11-24T02:28:41.279Z,45.97
2023-11-24T02:29:41.248Z,45.99
2023-11-24T02:30:41.350Z,46.01
2023-11-24T02:31:41.304Z,46.02
2023-11-24T02:32:41.330Z,46.02
2023-11-24T02:33:41.226Z,46.02
2023-11-24T02:34:41.234Z,46.00
2023-11-24T02:35:41.203Z,45.97
2023-11-24T02:36:41.222Z,45.99
2023-11-24T02:37:41.210Z,46.01
2023-11-24T02:38:41.185Z,45.97
2023-11-24T02:39:41.180Z,45.98
2023-11-24T02:40:41.810Z,45.95
2023-11-24T02:41:41.141Z,45.87
2023-11-24T02:42:41.153Z,45.90
2023-11-24T02:43:41.145Z,45.83
2023-11-24T02:44:41.122Z,45.80
2023-11-24T02:45:41.158Z,45.80
2023-11-24T02:46:41.101Z,45.78
2023-11-24T02:47:41.125Z,45.75
2023-11-24T02:48:41.133Z,45.72
2023-11-24T02:49:41.092Z,45.72
2023-11-24T02:50:41.093Z,45.69
2023-11-24T02:51:41.108Z,45.72
2023-11-24T02:52:41.067Z,45.65
2023-11-24T02:53:41.053Z,45.63
2023-11-24T02:54:41.076Z,45.59
2023-11-24T02:55:41.029Z,45.59
2023-11-24T02:56:41.050Z,45.52
2023-11-24T02:57:41.047Z,45.54
2023-11-24T02:58:41.019Z,45.51
2023-11-24T02:59:40.997Z,45.49
2023-11-24T03:00:41.044Z,45.49
2023-11-24T03:01:41.705Z,45.46
2023-11-24T03:02:41.021Z,45.37
2023-11-24T03:03:41.014Z,45.41
2023-11-24T03:04:40.977Z,45.37
2023-11-24T03:05:40.944Z,45.26
2023-11-24T03:06:41.011Z,45.30
2023-11-24T03:07:40.935Z,45.30
2023-11-24T03:08:40.919Z,45.23
2023-11-24T03:09:40.932Z,45.21
2023-11-24T03:10:40.904Z,45.22
2023-11-24T03:11:40.890Z,45.22
2023-11-24T03:12:40.888Z,45.20
2023-11-24T03:13:40.888Z,45.23
2023-11-24T03:14:40.865Z,45.22
2023-11-24T03:15:40.904Z,45.15
2023-11-24T03:16:41.417Z,45.13
2023-11-24T03:17:40.860Z,45.02
2023-11-24T03:18:40.856Z,45.09
2023-11-24T03:19:40.818Z,45.08
2023-11-24T03:20:40.821Z,45.07
2023-11-24T03:21:40.825Z,45.06
2023-11-24T03:22:40.817Z,45.13
2023-11-24T03:23:40.788Z,45.04
2023-11-24T03:24:40.790Z,45.05
2023-11-24T03:25:40.763Z,45.01
2023-11-24T03:26:40.816Z,45.02
2023-11-24T03:27:40.759Z,45.02
2023-11-24T03:28:40.758Z,44.99
2023-11-24T03:29:40.767Z,44.96
2023-11-24T03:30:40.780Z,44.97
2023-11-24T03:31:40.715Z,44.94
2023-11-24T03:32:40.775Z,44.85
2023-11-24T03:33:40.777Z,44.92
2023-11-24T03:34:40.752Z,44.92
2023-11-24T03:35:40.691Z,44.77
2023-11-24T03:36:40.707Z,44.85
2023-11-24T03:37:40.676Z,44.83
2023-11-24T03:38:40.662Z,44.83
2023-11-24T03:39:40.662Z,44.74
2023-11-24T03:40:41.357Z,44.85
2023-11-24T03:41:40.647Z,44.85
2023-11-24T03:42:40.752Z,44.82
2023-11-24T03:43:40.606Z,44.82
2023-11-24T03:44:40.611Z,44.77
2023-11-24T03:45:40.630Z,44.83
2023-11-24T03:46:40.632Z,44.84
2023-11-24T03:47:40.823Z,44.80
2023-11-24T03:48:40.616Z,44.76
2023-11-24T03:49:40.548Z,44.80
2023-11-24T03:50:40.574Z,44.76
2023-11-24T03:51:40.573Z,44.73
2023-11-24T03:52:40.530Z,44.76
2023-11-24T03:53:40.540Z,44.72
2023-11-24T03:54:40.548Z,44.70
2023-11-24T03:55:40.498Z,44.66
2023-11-24T03:56:40.502Z,44.68
2023-11-24T03:57:40.513Z,44.68
2023-11-24T03:58:40.490Z,44.66
2023-11-24T03:59:40.498Z,44.63
2023-11-24T04:00:40.584Z,44.65
2023-11-24T04:01:40.630Z,44.61
2023-11-24T04:02:40.543Z,44.58
2023-11-24T04:03:40.529Z,44.59
2023-11-24T04:04:40.451Z,44.59
2023-11-24T04:05:40.423Z,44.60
2023-11-24T04:06:40.494Z,44.57
2023-11-24T04:07:40.449Z,44.56
2023-11-24T04:08:40.407Z,44.52
2023-11-24T04:09:40.425Z,44.52
2023-11-24T04:10:40.377Z,44.53
2023-11-24T04:11:40.397Z,44.46
2023-11-24T04:12:40.403Z,44.47
2023-11-24T04:13:40.367Z,44.48
2023-11-24T04:14:40.347Z,44.49
2023-11-24T04:15:40.453Z,44.49
2023-11-24T04:16:40.423Z,44.48
2023-11-24T04:17:40.375Z,44.46
2023-11-24T04:18:40.367Z,44.49
2023-11-24T04:19:40.302Z,44.47
2023-11-24T04:20:40.308Z,44.44
2023-11-24T04:21:40.322Z,44.38
2023-11-24T04:22:40.284Z,44.40
2023-11-24T04:23:40.373Z,44.43
2023-11-24T04:24:40.349Z,44.41
2023-11-24T04:25:40.246Z,44.41
2023-11-24T04:26:40.256Z,44.42
2023-11-24T04:27:40.281Z,44.38
2023-11-24T04:28:40.234Z,44.38
2023-11-24T04:29:40.242Z,44.41
2023-11-24T04:30:40.322Z,44.41
2023-11-24T04:31:40.208Z,44.38
2023-11-24T04:32:40.219Z,44.36
2023-11-24T04:33:40.236Z,44.35
2023-11-24T04:34:40.280Z,44.39
2023-11-24T04:35:40.179Z,44.32
2023-11-24T04:36:40.239Z,44.34
2023-11-24T04:37:40.150Z,44.29
2023-11-24T04:38:40.164Z,44.33
2023-11-24T04:39:40.206Z,44.34
2023-11-24T04:40:40.138Z,44.32
2023-11-24T04:41:40.112Z,44.31
2023-11-24T04:42:40.259Z,44.30
2023-11-24T04:43:40.144Z,44.29
2023-11-24T04:44:40.110Z,44.28
2023-11-24T04:45:40.183Z,44.26
2023-11-24T04:46:40.200Z,44.30
2023-11-24T04:47:40.192Z,44.31
2023-11-24T04:48:40.075Z,44.29
2023-11-24T04:49:40.059Z,44.29
2023-11-24T04:50:40.039Z,44.25
2023-11-24T04:51:40.073Z,44.26
2023-11-24T04:52:40.026Z,44.25
2023-11-24T04:53:41.645Z,44.28
2023-11-24T04:54:40.055Z,44.28
2023-11-24T04:55:40.012Z,44.26
2023-11-24T04:56:39.986Z,44.26
2023-11-24T04:57:40.046Z,44.24
2023-11-24T04:58:39.975Z,44.28
2023-11-24T04:59:39.967Z,44.24
2023-11-24T05:00:40.009Z,44.26
2023-11-24T05:01:39.997Z,44.27
2023-11-24T05:02:40.037Z,44.23
2023-11-24T05:03:40.028Z,44.24
2023-11-24T05:04:40.008Z,44.25
2023-11-24T05:05:39.929Z,44.27
2023-11-24T05:06:39.955Z,44.22
2023-11-24T05:07:39.911Z,44.24
2023-11-24T05:08:39.888Z,44.24
2023-11-24T05:09:39.972Z,44.23
2023-11-24T05:10:39.880Z,44.24
2023-11-24T05:11:39.878Z,44.21
2023-11-24T05:12:39.902Z,44.24
2023-11-24T05:13:39.851Z,44.24
2023-11-24T05:14:39.837Z,44.21
2023-11-24T05:15:39.847Z,44.21
2023-11-24T05:16:39.858Z,44.23
2023-11-24T05:17:39.991Z,44.18
2023-11-24T05:18:39.851Z,44.18
2023-11-24T05:19:39.824Z,44.19
2023-11-24T05:20:39.801Z,44.19
2023-11-24T05:21:53.827Z,44.18
2023-11-24T05:22:39.773Z,44.24
2023-11-24T05:23:39.828Z,44.18
2023-11-24T05:24:39.796Z,44.16
2023-11-24T05:25:39.750Z,44.16
2023-11-24T05:26:39.752Z,44.19
2023-11-24T05:27:39.766Z,44.16
2023-11-24T05:28:39.711Z,44.16
2023-11-24T05:29:39.719Z,44.14
2023-11-24T05:30:39.762Z,44.13
2023-11-24T05:31:39.716Z,44.12
2023-11-24T05:32:39.770Z,44.16
2023-11-24T05:33:39.726Z,44.10
2023-11-24T05:34:39.669Z,44.12
2023-11-24T05:35:39.657Z,44.14
2023-11-24T05:36:39.673Z,44.13
2023-11-24T05:37:39.657Z,44.12
2023-11-24T05:38:39.655Z,44.11
2023-11-24T05:39:39.729Z,44.12
2023-11-24T05:40:39.623Z,44.11
2023-11-24T05:41:39.620Z,44.11
2023-11-24T05:42:39.641Z,44.10
2023-11-24T05:43:39.602Z,44.10
2023-11-24T05:44:39.579Z,44.10
2023-11-24T05:45:39.669Z,44.10
2023-11-24T05:46:39.588Z,44.09
2023-11-24T05:47:39.583Z,44.08
2023-11-24T05:48:39.596Z,44.08
2023-11-24T05:49:39.544Z,44.10
2023-11-24T05:50:39.537Z,44.07
2023-11-24T05:51:40.077Z,44.03
2023-11-24T05:52:39.548Z,44.09
2023-11-24T05:53:39.504Z,44.07
2023-11-24T05:54:39.528Z,44.05
2023-11-24T05:55:39.500Z,44.04
2023-11-24T05:56:39.491Z,44.04
2023-11-24T05:57:39.505Z,44.07
2023-11-24T05:58:39.480Z,44.08
2023-11-24T05:59:39.457Z,44.05
2023-11-24T06:00:39.480Z,44.03
2023-11-24T06:01:39.464Z,44.03
2023-11-24T06:02:39.438Z,44.01
2023-11-24T06:03:39.495Z,44.04
2023-11-24T06:04:39.688Z,44.01
2023-11-24T06:05:39.489Z,44.02
2023-11-24T06:06:39.424Z,44.05
2023-11-24T06:07:39.411Z,44.05
2023-11-24T06:08:39.377Z,44.08
2023-11-24T06:09:39.407Z,44.03
2023-11-24T06:10:39.376Z,44.04
2023-11-24T06:11:39.365Z,44.07
2023-11-24T06:12:39.395Z,44.05
2023-11-24T06:13:39.344Z,44.07
2023-11-24T06:14:39.349Z,44.08
2023-11-24T06:15:39.349Z,44.07
2023-11-24T06:16:39.366Z,44.09
2023-11-24T06:17:39.347Z,44.07
2023-11-24T06:18:39.344Z,44.07
2023-11-24T06:19:39.308Z,44.04
2023-11-24T06:20:39.302Z,44.04
2023-11-24T06:21:39.338Z,44.08
2023-11-24T06:22:39.267Z,44.08
2023-11-24T06:23:39.262Z,44.08
2023-11-24T06:24:39.260Z,44.09
2023-11-24T06:25:39.252Z,44.07
2023-11-24T06:26:39.222Z,44.10
2023-11-24T06:27:39.286Z,43.95
2023-11-24T06:28:39.203Z,43.99
2023-11-24T06:29:39.210Z,44.03
2023-11-24T06:30:39.234Z,44.02
2023-11-24T06:31:39.191Z,44.07
2023-11-24T06:32:39.209Z,44.04
2023-11-24T06:33:39.250Z,43.97
2023-11-24T06:34:39.219Z,44.03
2023-11-24T06:35:39.171Z,44.10
2023-11-24T06:36:39.184Z,44.12
2023-11-24T06:37:39.136Z,44.18
2023-11-24T06:38:39.126Z,44.10
2023-11-24T06:39:39.953Z,44.19
2023-11-24T06:40:39.116Z,44.13
2023-11-24T06:41:39.131Z,44.22
2023-11-24T06:42:39.128Z,44.56
2023-11-24T06:43:39.106Z,44.49
2023-11-24T06:44:39.072Z,44.66
2023-11-24T06:45:39.097Z,44.71
2023-11-24T06:46:39.074Z,44.83
2023-11-24T06:47:39.098Z,44.99
2023-11-24T06:48:39.083Z,45.17
2023-11-24T06:49:39.039Z,45.23
2023-11-24T06:50:39.023Z,45.27
2023-11-24T06:51:39.161Z,45.39
2023-11-24T06:52:39.023Z,45.40
2023-11-24T06:53:39.004Z,45.90
2023-11-24T06:54:39.028Z,45.93
2023-11-24T06:55:38.982Z,46.02
2023-11-24T06:56:38.989Z,46.37
2023-11-24T06:57:39.040Z,46.35
2023-11-24T06:58:38.990Z,46.23
2023-11-24T06:59:38.989Z,46.46
2023-11-24T07:00:39.066Z,41.28
2023-11-24T07:01:39.037Z,39.93
2023-11-24T07:02:38.937Z,40.67
2023-11-24T07:03:38.989Z,37.70
2023-11-24T07:04:38.965Z,36.62
2023-11-24T07:05:38.908Z,36.17
2023-11-24T07:06:38.934Z,36.11
2023-11-24T07:07:38.926Z,35.80
2023-11-24T07:08:38.891Z,35.60
2023-11-24T07:09:38.872Z,34.61
2023-11-24T07:10:38.908Z,34.59
2023-11-24T07:11:38.878Z,34.39
2023-11-24T07:12:38.873Z,34.34
2023-11-24T07:13:38.858Z,34.41
2023-11-24T07:14:38.817Z,34.38
2023-11-24T07:15:38.881Z,34.57
2023-11-24T07:16:38.937Z,34.34
2023-11-24T07:17:38.811Z,34.57
2023-11-24T07:18:38.934Z,34.53
2023-11-24T07:19:38.851Z,34.48
2023-11-24T07:20:38.765Z,34.55
2023-11-24T07:21:38.776Z,34.66
2023-11-24T07:22:38.743Z,34.64
2023-11-24T07:23:38.753Z,34.64
2023-11-24T07:24:38.766Z,34.85
2023-11-24T07:25:38.734Z,36.10
2023-11-24T07:26:38.778Z,37.38
2023-11-24T07:27:38.738Z,37.92
2023-11-24T07:28:38.716Z,39.37
2023-11-24T07:29:38.788Z,40.67
2023-11-24T07:30:38.699Z,40.39
2023-11-24T07:31:38.668Z,40.24
2023-11-24T07:32:38.707Z,39.96
2023-11-24T07:33:38.667Z,39.82
2023-11-24T07:34:38.823Z,39.77
2023-11-24T07:35:38.644Z,39.70
2023-11-24T07:36:38.672Z,39.71
2023-11-24T07:37:38.645Z,39.75
2023-11-24T07:38:38.606Z,39.74
2023-11-24T07:39:38.649Z,39.79
2023-11-24T07:40:38.594Z,39.87
2023-11-24T07:41:38.598Z,39.91
2023-11-24T07:42:38.706Z,39.98
2023-11-24T07:43:38.577Z,40.05
2023-11-24T07:44:38.553Z,40.12
2023-11-24T07:45:38.616Z,40.22
2023-11-24T07:46:38.630Z,40.38
2023-11-24T07:47:38.560Z,40.40
2023-11-24T07:48:38.555Z,40.42
2023-11-24T07:49:38.515Z,40.57
2023-11-24T07:50:38.534Z,40.79
2023-11-24T07:51:38.545Z,41.07
2023-11-24T07:52:38.508Z,41.24
2023-11-24T07:53:38.481Z,40.16
2023-11-24T07:54:38.500Z,39.06
2023-11-24T07:55:38.475Z,37.07
2023-11-24T07:56:38.461Z,36.91
2023-11-24T07:57:38.509Z,39.17
2023-11-24T07:58:38.442Z,39.71
2023-11-24T07:59:38.447Z,40.67
2023-11-24T08:00:38.438Z,41.19
2023-11-24T08:01:38.528Z,41.45
2023-11-24T08:02:38.563Z,41.87
2023-11-24T08:03:38.540Z,41.74
2023-11-24T08:04:38.477Z,41.78
2023-11-24T08:05:38.389Z,41.89
2023-11-24T08:06:38.387Z,41.96
2023-11-24T08:07:38.358Z,42.13
2023-11-24T08:08:38.381Z,41.97
2023-11-24T08:09:38.457Z,42.11
2023-11-24T08:10:38.960Z,42.27
2023-11-24T08:11:38.332Z,42.39
2023-11-24T08:12:38.442Z,42.89
2023-11-24T08:13:38.326Z,42.80
2023-11-24T08:14:38.302Z,42.88
2023-11-24T08:15:38.319Z,42.70
2023-11-24T08:16:38.394Z,42.82
2023-11-24T08:17:38.323Z,43.20
2023-11-24T08:18:38.280Z,42.97
2023-11-24T08:19:38.266Z,42.99
2023-11-24T08:20:38.275Z,43.12
2023-11-24T08:21:38.361Z,43.08
2023-11-24T08:22:38.228Z,43.12
2023-11-24T08:23:38.232Z,43.15
2023-11-24T08:24:38.226Z,42.49
2023-11-24T08:25:38.228Z,41.33
2023-11-24T08:26:38.199Z,41.77
2023-11-24T08:27:38.242Z,40.34
2023-11-24T08:28:38.199Z,40.73
2023-11-24T08:29:38.180Z,39.09
2023-11-24T08:30:38.207Z,38.61
2023-11-24T08:31:38.169Z,38.36
2023-11-24T08:32:38.204Z,39.13
2023-11-24T08:33:38.172Z,39.95
2023-11-24T08:34:38.185Z,38.83
2023-11-24T08:35:38.156Z,39.88
2023-11-24T08:36:38.153Z,40.48
2023-11-24T08:37:38.129Z,40.60
2023-11-24T08:38:38.094Z,40.53
2023-11-24T08:39:38.111Z,40.51
2023-11-24T08:40:38.075Z,40.68
2023-11-24T08:41:40.680Z,40.82
2023-11-24T08:42:38.154Z,40.92
2023-11-24T08:43:38.084Z,41.02
2023-11-24T08:44:40.372Z,41.31
2023-11-24T08:54:04.824Z,43.35
2023-11-24T08:55:05.480Z,43.20
2023-11-24T08:56:04.824Z,43.14
2023-11-24T08:57:04.814Z,43.53
2023-11-24T08:58:04.853Z,43.60
2023-11-24T08:59:04.786Z,43.45
2023-11-24T09:00:04.796Z,44.02
2023-11-24T09:01:04.816Z,43.88
2023-11-24T09:02:04.854Z,43.84
2023-11-24T09:03:04.744Z,44.65
2023-11-24T09:04:04.832Z,45.17
2023-11-24T09:05:04.835Z,44.34
2023-11-24T09:06:04.739Z,44.14
2023-11-24T09:07:04.805Z,44.15
2023-11-24T09:08:04.717Z,44.19
2023-11-24T09:09:04.717Z,44.26
2023-11-24T09:10:04.788Z,44.34
2023-11-24T09:11:04.694Z,44.40
2023-11-24T09:12:04.672Z,44.64
2023-11-24T09:13:04.702Z,44.57
2023-11-24T09:14:04.654Z,44.78
2023-11-24T09:15:04.643Z,44.95
2023-11-24T09:16:04.686Z,45.36
2023-11-24T09:17:04.686Z,44.97
2023-11-24T09:18:04.678Z,45.22
2023-11-24T09:19:04.648Z,45.03
2023-11-24T09:20:04.628Z,45.06
2023-11-24T09:21:04.595Z,45.10
2023-11-24T09:22:04.620Z,45.36
2023-11-24T09:23:04.571Z,46.26
2023-11-24T09:24:04.595Z,45.54
2023-11-24T09:25:04.572Z,45.41
2023-11-24T09:26:04.561Z,45.62
2023-11-24T09:27:04.562Z,45.57
2023-11-24T09:28:04.562Z,45.48
2023-11-24T09:29:04.513Z,45.54
2023-11-24T09:30:04.599Z,45.51
2023-11-24T09:31:09.708Z,45.71
2023-11-24T09:32:04.506Z,45.80
2023-11-24T09:33:04.494Z,46.03
2023-11-24T09:34:04.656Z,46.34
2023-11-24T09:35:04.538Z,46.82
2023-11-24T09:36:04.480Z,46.37
2023-11-24T09:37:04.492Z,46.36
2023-11-24T09:38:04.453Z,46.42
2023-11-24T09:39:04.446Z,47.05
2023-11-24T09:40:04.547Z,46.78
2023-11-24T09:41:04.499Z,46.44
2023-11-24T09:42:04.419Z,46.39
2023-11-24T09:43:04.449Z,45.86
2023-11-24T09:44:04.400Z,46.06
2023-11-24T09:45:04.386Z,46.44
2023-11-24T09:46:04.476Z,46.34
2023-11-24T09:47:04.452Z,46.51
2023-11-24T09:48:04.394Z,46.28
2023-11-24T09:49:04.370Z,46.57
2023-11-24T09:50:04.406Z,46.69
2023-11-24T09:51:04.349Z,46.90
2023-11-24T09:52:04.365Z,46.96
2023-11-24T09:53:04.305Z,47.14
2023-11-24T09:54:04.309Z,47.20
2023-11-24T09:55:04.356Z,47.55
2023-11-24T09:56:04.534Z,47.66
2023-11-24T09:57:04.297Z,47.12
2023-11-24T09:58:04.302Z,47.29
2023-11-24T09:59:04.462Z,47.32
2023-11-24T10:00:04.256Z,47.41
2023-11-24T10:01:04.293Z,47.43
2023-11-24T10:02:06.331Z,47.49
2023-11-24T10:03:04.271Z,47.59
2023-11-24T10:04:04.313Z,47.64
2023-11-24T10:05:04.215Z,47.66
2023-11-24T10:06:04.199Z,47.73
2023-11-24T10:07:04.223Z,47.76
2023-11-24T10:08:04.179Z,47.84
2023-11-24T10:09:04.185Z,47.88
2023-11-24T10:10:04.260Z,47.89
2023-11-24T10:11:04.154Z,48.02
2023-11-24T10:12:04.137Z,47.93
2023-11-24T10:13:04.869Z,48.81
2023-11-24T10:14:04.146Z,48.30
2023-11-24T10:15:04.120Z,48.38
2023-11-24T10:16:04.169Z,48.32
2023-11-24T10:17:04.104Z,48.33
2023-11-24T10:18:04.137Z,48.49
2023-11-24T10:19:04.115Z,48.60
2023-11-24T10:20:04.088Z,48.59
2023-11-24T10:21:04.063Z,48.62
2023-11-24T10:22:04.151Z,48.60
2023-11-24T10:23:04.041Z,48.67
2023-11-24T10:24:04.057Z,48.78
2023-11-24T10:25:04.098Z,48.74
2023-11-24T10:26:04.022Z,48.70
2023-11-24T10:27:04.000Z,48.80
2023-11-24T10:28:04.048Z,48.85
2023-11-24T10:29:03.994Z,49.03
2023-11-24T10:30:03.988Z,49.02
2023-11-24T10:31:04.028Z,49.10
2023-11-24T10:32:03.971Z,49.14
2023-11-24T10:33:04.073Z,49.24
2023-11-24T10:34:04.064Z,49.25
2023-11-24T10:35:04.096Z,49.22
2023-11-24T10:36:03.930Z,49.29
2023-11-24T10:37:04.011Z,49.32
2023-11-24T10:38:04.011Z,49.42
2023-11-24T10:39:03.981Z,49.41
2023-11-24T10:40:03.954Z,49.43
2023-11-24T10:41:05.283Z,49.47
2023-11-24T10:42:03.869Z,49.46
2023-11-24T10:43:03.976Z,49.50
2023-11-24T10:44:03.875Z,49.54
2023-11-24T10:45:03.858Z,49.67
2023-11-24T10:46:03.939Z,49.18
2023-11-24T10:47:03.850Z,48.63
2023-11-24T10:48:03.853Z,48.99
2023-11-24T10:49:03.833Z,47.42
2023-11-24T10:50:03.808Z,48.34
2023-11-24T10:51:03.789Z,43.85
2023-11-24T10:52:03.835Z,39.25
2023-11-24T10:53:03.846Z,37.50
2023-11-24T10:54:03.820Z,36.87
2023-11-24T10:55:03.768Z,36.70
2023-11-24T10:56:03.766Z,36.77
2023-11-24T10:57:03.750Z,37.47
2023-11-24T10:58:03.775Z,38.08
2023-11-24T10:59:03.727Z,37.70
2023-11-24T11:00:03.714Z,37.81
2023-11-24T11:01:04.094Z,37.95
2023-11-24T11:02:03.981Z,37.33
2023-11-24T11:03:03.702Z,38.11
2023-11-24T11:04:03.701Z,37.49
2023-11-24T11:05:03.678Z,38.31
2023-11-24T11:06:03.663Z,38.19
2023-11-24T11:07:03.688Z,38.22
2023-11-24T11:08:03.639Z,37.14
2023-11-24T11:09:03.629Z,37.39
2023-11-24T11:10:03.994Z,37.40
2023-11-24T11:11:03.676Z,37.57
2023-11-24T11:12:03.621Z,37.37
2023-11-24T11:13:03.604Z,36.50
2023-11-24T11:14:05.449Z,36.65
2023-11-24T11:15:03.712Z,36.93
2023-11-24T11:16:03.738Z,36.12
2023-11-24T11:17:03.748Z,36.50
2023-11-24T11:18:03.716Z,37.91
2023-11-24T11:19:03.810Z,39.10
2023-11-24T11:20:05.753Z,39.56
2023-11-24T11:21:03.691Z,39.55
2023-11-24T11:22:03.692Z,39.50
2023-11-24T11:23:03.656Z,39.32
2023-11-24T11:24:03.625Z,39.29
2023-11-24T11:25:03.645Z,39.36
2023-11-24T11:26:06.083Z,39.27
2023-11-24T11:27:03.747Z,39.27
2023-11-24T11:28:03.850Z,39.28
2023-11-24T11:29:03.703Z,39.33
2023-11-24T11:30:03.716Z,39.38
2023-11-24T11:31:03.751Z,39.45
2023-11-24T11:32:03.739Z,39.49
2023-11-24T11:33:03.741Z,39.54
2023-11-24T11:34:03.795Z,39.56
2023-11-24T11:35:03.698Z,39.63
2023-11-24T11:36:03.653Z,39.64
2023-11-24T11:37:03.694Z,39.71
2023-11-24T11:38:03.645Z,39.82
2023-11-24T11:39:03.624Z,39.87
2023-11-24T11:40:03.670Z,39.88
2023-11-24T11:41:03.631Z,39.96
2023-11-24T11:42:03.686Z,39.79
2023-11-24T11:43:03.614Z,40.11
2023-11-24T11:44:03.599Z,40.25
2023-11-24T11:45:03.713Z,40.15
2023-11-24T11:46:03.741Z,40.23
2023-11-24T11:47:03.722Z,40.41
2023-11-24T11:48:03.617Z,40.42
2023-11-24T11:49:03.600Z,40.89
2023-11-24T11:50:03.581Z,40.88
2023-11-24T11:51:03.576Z,40.93
2023-11-24T11:52:03.576Z,41.01
2023-11-24T11:53:03.617Z,41.11
2023-11-24T11:54:03.514Z,41.21
2023-11-24T11:55:03.570Z,41.31
2023-11-24T11:56:03.483Z,41.39
2023-11-24T11:57:03.481Z,41.46
2023-11-24T11:58:03.568Z,41.56
2023-11-24T11:59:03.464Z,41.70
2023-11-24T12:00:03.459Z,41.86
2023-11-24T12:01:03.484Z,41.91
2023-11-24T12:02:03.530Z,42.02
2023-11-24T12:03:03.490Z,42.03
2023-11-24T12:04:03.533Z,42.16
2023-11-24T12:05:03.398Z,42.30
2023-11-24T12:06:03.404Z,42.37
2023-11-24T12:07:03.460Z,42.47
2023-11-24T12:08:03.394Z,42.68
2023-11-24T12:09:03.355Z,42.76
2023-11-24T12:10:03.430Z,42.85
2023-11-24T12:11:03.346Z,42.89
2023-11-24T12:12:03.349Z,42.97
2023-11-24T12:13:03.417Z,43.09
2023-11-24T12:14:03.392Z,42.74
2023-11-24T12:15:03.330Z,43.10
2023-11-24T12:16:03.368Z,43.09
2023-11-24T12:17:03.418Z,43.13
2023-11-24T12:18:03.295Z,43.23
2023-11-24T12:19:03.290Z,43.29
2023-11-24T12:20:03.296Z,43.30
2023-11-24T12:21:03.300Z,43.42
2023-11-24T12:22:03.312Z,43.42
2023-11-24T12:23:03.268Z,43.47
2023-11-24T12:25:03.308Z,43.77
2023-11-24T12:26:03.218Z,43.80
2023-11-24T12:27:03.213Z,43.92
2023-11-24T12:28:03.303Z,44.05
2023-11-24T12:29:03.177Z,44.05
2023-11-24T12:30:03.233Z,44.11
2023-11-24T12:31:03.281Z,44.16
2023-11-24T12:32:03.173Z,44.38
2023-11-24T12:33:03.229Z,44.73
2023-11-24T12:34:03.180Z,44.70
2023-11-24T12:35:03.152Z,44.58
2023-11-24T12:36:03.198Z,44.50
2023-11-24T12:37:03.130Z,44.32
2023-11-24T12:38:03.109Z,44.48
2023-11-24T12:39:03.089Z,44.57
2023-11-24T12:40:03.136Z,44.64
2023-11-24T12:41:03.094Z,44.66
2023-11-24T12:42:03.100Z,44.70
2023-11-24T12:43:03.127Z,44.59
2023-11-24T12:44:03.067Z,44.72
2023-11-24T12:45:03.053Z,44.80
2023-11-24T12:46:03.202Z,44.89
2023-11-24T12:47:03.055Z,44.90
2023-11-24T12:48:03.066Z,44.88
2023-11-24T12:49:03.113Z,44.90
2023-11-24T12:50:03.167Z,44.91
2023-11-24T12:51:03.026Z,44.93
2023-11-24T12:52:03.010Z,44.94
2023-11-24T12:53:02.989Z,44.92
2023-11-24T12:54:02.977Z,44.86
2023-11-24T12:55:03.233Z,44.92
2023-11-24T12:56:02.966Z,44.84
2023-11-24T12:57:02.956Z,44.87
2023-11-24T12:58:02.963Z,44.91
2023-11-24T12:59:02.929Z,45.02
2023-11-24T13:00:02.921Z,44.96
2023-11-24T13:01:02.934Z,45.04
2023-11-24T13:02:02.938Z,45.06